createdAt,value
2023-02-09T00:01:44.919Z,11.68
2023-02-09T00:04:12.837Z,12.48
2023-02-09T00:06:41.504Z,11.40
2023-02-09T00:09:09.147Z,11.18
2023-02-09T00:11:56.563Z,10.90
2023-02-09T00:14:24.574Z,10.13
2023-02-09T00:17:00.783Z,12.25
2023-02-09T00:19:28.934Z,12.20
2023-02-09T00:21:57.320Z,11.65
2023-02-09T00:24:25.038Z,10.65
2023-02-09T00:26:52.873Z,11.45
2023-02-09T00:29:24.146Z,10.43
2023-02-09T00:31:52.210Z,10.80
2023-02-09T00:34:20.065Z,10.40
2023-02-09T00:36:48.785Z,11.40
2023-02-09T00:39:17.253Z,11.45
2023-02-09T00:42:03.235Z,11.43
2023-02-09T00:44:31.563Z,9.88
2023-02-09T00:46:59.807Z,11.73
2023-02-09T00:49:27.345Z,10.80
2023-02-09T00:51:56.457Z,10.93
2023-02-09T00:54:24.527Z,11.40
2023-02-09T00:56:52.300Z,10.82
2023-02-09T00:59:20.254Z,10.15
2023-02-09T01:01:49.141Z,10.25
2023-02-09T01:04:16.883Z,11.88
2023-02-09T01:06:44.459Z,10.02
2023-02-09T01:09:12.030Z,9.52
2023-02-09T01:11:39.575Z,10.95
2023-02-09T01:14:07.305Z,11.10
2023-02-09T01:16:34.949Z,7.93
2023-02-09T01:19:04.021Z,10.52
2023-02-09T01:21:31.881Z,9.32
2023-02-09T01:23:59.697Z,9.38
2023-02-09T01:26:27.497Z,9.90
2023-02-09T01:28:55.210Z,9.27
2023-02-09T01:31:25.032Z,10.07
2023-02-09T01:33:57.006Z,10.77
2023-02-09T01:36:28.456Z,9.75
2023-02-09T01:38:57.897Z,9.93
2023-02-09T01:41:26.410Z,9.90
2023-02-09T01:43:59.269Z,9.50
2023-02-09T01:46:33.010Z,10.35
2023-02-09T01:49:07.531Z,9.25
2023-02-09T01:51:44.357Z,10.48
2023-02-09T01:54:22.478Z,8.23
2023-02-09T01:56:55.289Z,10.25
2023-02-09T01:59:23.589Z,10.77
2023-02-09T02:01:53.310Z,9.77
2023-02-09T02:04:21.682Z,9.85
2023-02-09T02:06:58.056Z,7.68
2023-02-09T02:09:26.409Z,9.13
2023-02-09T02:11:56.964Z,10.23
2023-02-09T02:14:38.939Z,9.10
2023-02-09T02:17:12.355Z,9.63
2023-02-09T02:20:10.487Z,9.23
2023-02-09T02:22:41.037Z,7.80
2023-02-09T02:25:21.858Z,7.07
2023-02-09T02:28:27.789Z,10.13
2023-02-09T02:30:58.225Z,8.52
2023-02-09T02:33:40.854Z,7.53
2023-02-09T02:36:52.201Z,7.35
2023-02-09T02:40:07.185Z,7.82
2023-02-09T02:42:49.806Z,7.65
2023-02-09T02:45:33.912Z,5.93
2023-02-09T02:48:11.251Z,6.57
2023-02-09T02:50:45.806Z,6.45
2023-02-09T02:53:16.571Z,8.77
2023-02-09T02:55:47.456Z,8.45
2023-02-09T02:58:18.287Z,9.75
2023-02-09T03:00:50.183Z,9.38
2023-02-09T03:03:22.231Z,11.65
2023-02-09T03:05:50.722Z,10.35
2023-02-09T03:08:18.440Z,9.70
2023-02-09T03:10:47.127Z,9.05
2023-02-09T03:13:15.490Z,10.32
2023-02-09T03:15:53.223Z,11.55
2023-02-09T03:18:39.134Z,9.88
2023-02-09T03:21:28.044Z,8.27
2023-02-09T03:24:27.574Z,8.13
2023-02-09T03:27:04.684Z,10.77
2023-02-09T03:29:35.090Z,10.35
2023-02-09T03:32:02.806Z,10.00
2023-02-09T03:34:30.868Z,10.23
2023-02-09T03:36:58.722Z,9.48
2023-02-09T03:39:26.445Z,7.30
2023-02-09T03:41:53.939Z,5.95
2023-02-09T03:44:27.226Z,7.93
2023-02-09T03:47:02.630Z,8.15
2023-02-09T03:49:33.674Z,8.82
2023-02-09T03:52:02.935Z,7.95
2023-02-09T03:56:59.853Z,6.13
2023-02-09T03:59:28.445Z,5.95
2023-02-09T04:01:58.835Z,8.02
2023-02-09T04:04:27.232Z,6.50
2023-02-09T04:06:56.202Z,9.83
2023-02-09T04:09:25.464Z,10.82
2023-02-09T04:11:53.124Z,9.18
2023-02-09T04:14:21.481Z,8.25
2023-02-09T04:16:48.972Z,7.28
2023-02-09T04:19:16.622Z,6.65
2023-02-09T04:21:44.156Z,8.10
2023-02-09T04:24:11.972Z,8.25
2023-02-09T04:26:39.588Z,8.63
2023-02-09T04:29:07.219Z,7.72
2023-02-09T04:31:35.148Z,8.90
2023-02-09T04:34:02.877Z,8.73
2023-02-09T04:36:30.501Z,8.60
2023-02-09T04:38:58.319Z,8.52
2023-02-09T04:41:26.069Z,7.20
2023-02-09T04:43:54.569Z,7.75
2023-02-09T04:46:22.078Z,7.68
2023-02-09T04:48:49.786Z,9.57
2023-02-09T04:51:17.353Z,8.73
2023-02-09T04:53:44.941Z,9.70
2023-02-09T04:56:15.393Z,11.43
2023-02-09T04:59:02.654Z,10.05
2023-02-09T05:01:31.167Z,13.70
2023-02-09T05:03:58.934Z,15.10
2023-02-09T05:06:27.482Z,13.80
2023-02-09T05:08:55.525Z,17.95
2023-02-09T05:11:25.299Z,16.38
2023-02-09T05:13:53.425Z,14.05
2023-02-09T05:16:21.678Z,14.30
2023-02-09T05:18:50.655Z,13.88
2023-02-09T05:21:18.398Z,14.02
2023-02-09T05:23:46.167Z,12.77
2023-02-09T05:26:13.733Z,10.93
2023-02-09T05:28:41.513Z,12.27
2023-02-09T05:31:09.096Z,11.60
2023-02-09T05:33:36.775Z,14.32
2023-02-09T05:36:09.337Z,15.45
2023-02-09T05:38:37.356Z,12.48
2023-02-09T05:41:10.932Z,12.52
2023-02-09T05:43:38.876Z,11.63
2023-02-09T05:46:08.482Z,12.35
2023-02-09T05:48:36.512Z,10.02
2023-02-09T05:51:04.062Z,13.13
2023-02-09T05:53:31.834Z,9.85
2023-02-09T05:55:59.444Z,9.40
2023-02-09T05:58:26.925Z,14.27
2023-02-09T06:00:55.433Z,12.32
2023-02-09T06:03:23.050Z,14.68
2023-02-09T06:05:52.388Z,17.52
2023-02-09T06:08:19.930Z,16.70
2023-02-09T06:10:49.503Z,19.02
2023-02-09T06:13:17.552Z,17.63
2023-02-09T06:15:45.074Z,14.98
2023-02-09T06:18:12.890Z,13.30
2023-02-09T06:20:40.500Z,15.00
2023-02-09T06:23:09.305Z,14.25
2023-02-09T06:25:39.660Z,10.70
2023-02-09T06:28:07.824Z,14.20
2023-02-09T06:30:35.501Z,11.90
2023-02-09T06:33:03.128Z,13.55
2023-02-09T06:35:30.877Z,13.68
2023-02-09T06:37:59.065Z,12.48
2023-02-09T06:40:26.580Z,13.03
2023-02-09T06:42:54.114Z,14.65
2023-02-09T06:45:21.658Z,13.45
2023-02-09T06:47:49.264Z,12.98
2023-02-09T06:50:18.322Z,13.02
2023-02-09T06:52:46.807Z,12.13
2023-02-09T06:55:15.026Z,12.70
2023-02-09T06:57:43.292Z,12.40
2023-02-09T07:00:12.313Z,14.32
2023-02-09T07:02:43.589Z,12.70
2023-02-09T07:05:13.040Z,15.55
2023-02-09T07:07:41.487Z,15.13
2023-02-09T07:10:11.829Z,15.93
2023-02-09T07:12:43.908Z,10.10
2023-02-09T07:15:13.283Z,16.17
2023-02-09T07:17:44.226Z,14.88
2023-02-09T07:20:12.391Z,15.77
2023-02-09T07:22:40.040Z,15.27
2023-02-09T07:25:07.869Z,15.35
2023-02-09T07:27:35.974Z,14.55
2023-02-09T07:30:04.310Z,14.23
2023-02-09T07:32:33.323Z,17.17
2023-02-09T07:35:00.845Z,15.18
2023-02-09T07:37:28.374Z,16.63
2023-02-09T07:39:56.042Z,15.80
2023-02-09T07:42:24.060Z,15.82
2023-02-09T07:44:58.361Z,18.33
2023-02-09T07:47:25.949Z,18.60
2023-02-09T07:49:53.564Z,17.55
2023-02-09T07:52:21.284Z,16.83
2023-02-09T07:54:50.637Z,18.60
2023-02-09T07:59:46.530Z,16.60
2023-02-09T08:02:22.298Z,15.02
2023-02-09T08:04:49.974Z,13.60
2023-02-09T08:07:17.560Z,17.63
2023-02-09T08:09:46.650Z,16.00
2023-02-09T08:12:14.279Z,17.35
2023-02-09T08:14:50.718Z,18.65
2023-02-09T08:17:20.701Z,15.60
2023-02-09T08:19:53.105Z,17.40
2023-02-09T08:22:23.563Z,17.58
2023-02-09T08:24:51.682Z,19.00
2023-02-09T08:27:19.860Z,18.58
2023-02-09T08:29:48.921Z,17.50
2023-02-09T08:32:18.962Z,17.85
2023-02-09T08:34:47.053Z,15.82
2023-02-09T08:37:14.828Z,16.63
2023-02-09T08:39:46.137Z,13.68
2023-02-09T08:42:13.652Z,17.10
2023-02-09T08:44:41.185Z,18.73
2023-02-09T08:47:08.850Z,27.92
2023-02-09T08:49:36.708Z,14.05
2023-02-09T08:52:04.501Z,16.42
2023-02-09T08:54:32.136Z,16.27
2023-02-09T08:57:00.814Z,17.77
2023-02-09T08:59:29.095Z,15.60
2023-02-09T09:01:56.714Z,17.90
2023-02-09T09:04:24.164Z,17.13
2023-02-09T09:06:51.981Z,17.25
2023-02-09T09:09:19.541Z,13.30
2023-02-09T09:11:47.203Z,16.17
2023-02-09T09:14:14.683Z,14.38
2023-02-09T09:16:44.101Z,14.13
2023-02-09T09:19:11.757Z,14.45
2023-02-09T09:21:39.197Z,13.27
2023-02-09T09:24:06.846Z,14.07
2023-02-09T09:26:35.593Z,13.93
2023-02-09T09:29:04.677Z,12.40
2023-02-09T09:31:33.630Z,14.40
2023-02-09T09:34:04.629Z,14.45
2023-02-09T09:36:32.270Z,12.93
2023-02-09T09:39:00.385Z,13.73
2023-02-09T09:41:37.521Z,13.40
2023-02-09T09:44:15.423Z,14.70
2023-02-09T09:46:47.687Z,13.45
2023-02-09T09:49:24.913Z,11.15
2023-02-09T09:52:28.789Z,12.10
2023-02-09T09:54:58.096Z,11.30
2023-02-09T09:57:29.043Z,8.73
2023-02-09T09:59:58.121Z,7.78
2023-02-09T10:02:30.196Z,9.45
2023-02-09T10:05:10.338Z,10.48
2023-02-09T10:07:40.611Z,11.27
2023-02-09T10:10:37.846Z,11.90
2023-02-09T10:13:14.856Z,11.40
2023-02-09T10:15:52.351Z,10.88
2023-02-09T10:18:25.958Z,12.18
2023-02-09T10:20:55.306Z,13.25
2023-02-09T10:23:29.041Z,10.57
2023-02-09T10:26:02.774Z,10.82
2023-02-09T10:28:33.866Z,11.25
2023-02-09T10:31:09.549Z,11.68
2023-02-09T10:33:45.036Z,10.05
2023-02-09T10:36:26.899Z,9.85
2023-02-09T10:39:24.264Z,9.90
2023-02-09T10:41:54.794Z,9.90
2023-02-09T10:44:30.201Z,10.30
2023-02-09T10:47:18.876Z,9.45
2023-02-09T10:50:12.639Z,10.30
2023-02-09T10:53:14.775Z,8.00
2023-02-09T10:55:43.486Z,8.38
2023-02-09T10:58:11.869Z,9.10
2023-02-09T11:00:53.692Z,8.55
2023-02-09T11:03:25.449Z,8.32
2023-02-09T11:06:00.976Z,9.02
2023-02-09T11:08:34.711Z,8.40
2023-02-09T11:11:30.165Z,8.80
2023-02-09T11:13:58.713Z,8.85
2023-02-09T11:16:36.621Z,8.90
2023-02-09T11:19:39.500Z,8.38
2023-02-09T11:22:18.722Z,8.60
2023-02-09T11:24:46.292Z,8.57
2023-02-09T11:27:20.093Z,9.35
2023-02-09T11:30:24.039Z,13.38
2023-02-09T11:33:14.653Z,9.35
2023-02-09T11:35:52.737Z,8.63
2023-02-09T11:38:52.566Z,8.45
2023-02-09T11:42:04.334Z,9.13
2023-02-09T11:44:54.636Z,9.75
2023-02-09T11:47:47.728Z,12.18
2023-02-09T11:50:24.019Z,12.07
2023-02-09T11:53:06.280Z,10.90
2023-02-09T11:55:41.877Z,11.20
2023-02-09T11:58:32.890Z,10.23
2023-02-09T12:01:21.267Z,11.63
2023-02-09T12:04:26.638Z,11.00
2023-02-09T12:07:00.126Z,10.25
2023-02-09T12:09:40.110Z,10.95
2023-02-09T12:12:14.940Z,10.80
2023-02-09T12:14:52.364Z,11.43
2023-02-09T12:17:43.888Z,12.65
2023-02-09T12:20:22.807Z,12.43
2023-02-09T12:22:58.409Z,11.52
2023-02-09T12:26:00.030Z,10.98
2023-02-09T12:28:27.680Z,10.40
2023-02-09T12:31:16.472Z,9.90
2023-02-09T12:33:47.404Z,10.27
2023-02-09T12:36:16.198Z,11.82
2023-02-09T12:38:53.482Z,12.18
2023-02-09T12:41:25.257Z,9.63
2023-02-09T12:44:11.982Z,10.77
2023-02-09T12:46:45.516Z,10.52
2023-02-09T12:49:17.913Z,11.65
2023-02-09T12:51:45.490Z,11.15
2023-02-09T12:54:32.105Z,9.52
2023-02-09T12:57:15.107Z,10.75
2023-02-09T12:59:51.561Z,11.60
2023-02-09T13:02:56.802Z,11.38
2023-02-09T13:05:33.778Z,10.48
2023-02-09T13:08:04.458Z,10.55
2023-02-09T13:10:50.427Z,10.90
2023-02-09T13:13:36.165Z,8.45
2023-02-09T13:16:03.656Z,9.52
2023-02-09T13:18:51.765Z,9.85
2023-02-09T13:21:56.133Z,10.43
2023-02-09T13:24:41.838Z,9.00
2023-02-09T13:27:21.991Z,9.25
2023-02-09T13:29:53.535Z,9.02
2023-02-09T13:32:44.704Z,9.57
2023-02-09T13:35:29.566Z,14.07
2023-02-09T13:38:15.938Z,11.15
2023-02-09T13:40:51.191Z,8.30
2023-02-09T13:43:32.535Z,10.32
2023-02-09T13:46:02.120Z,8.77
2023-02-09T13:51:01.701Z,9.70
2023-02-09T13:53:31.945Z,11.13
2023-02-09T13:56:00.667Z,11.15
2023-02-09T13:58:36.977Z,11.65
2023-02-09T14:01:14.119Z,11.02
2023-02-09T14:03:57.418Z,10.70
2023-02-09T14:06:31.894Z,11.57
2023-02-09T14:09:01.693Z,11.35
2023-02-09T14:11:42.767Z,10.93
2023-02-09T14:14:21.449Z,10.60
2023-02-09T14:17:23.737Z,10.73
2023-02-09T14:19:53.434Z,10.85
2023-02-09T14:25:27.332Z,10.30
2023-02-09T14:27:56.041Z,9.88
2023-02-09T14:30:27.775Z,11.50
2023-02-09T14:32:58.236Z,11.05
2023-02-09T14:35:28.908Z,11.45
2023-02-09T14:38:00.463Z,12.27
2023-02-09T14:40:28.072Z,11.40
2023-02-09T14:43:00.755Z,11.63
2023-02-09T14:45:36.162Z,12.23
2023-02-09T14:48:15.849Z,11.98
2023-02-09T14:50:44.197Z,11.55
2023-02-09T14:53:14.973Z,13.25
2023-02-09T14:55:44.574Z,12.57
2023-02-09T14:58:24.016Z,11.68
2023-02-09T15:00:54.046Z,13.07
2023-02-09T15:03:22.000Z,12.45
2023-02-09T15:05:52.329Z,12.73
2023-02-09T15:08:23.125Z,12.30
2023-02-09T15:10:55.860Z,13.40
2023-02-09T15:13:23.938Z,12.85
2023-02-09T15:15:53.826Z,13.25
2023-02-09T15:18:26.831Z,13.18
2023-02-09T15:20:54.659Z,13.88
2023-02-09T15:23:22.562Z,13.60
2023-02-09T15:25:50.129Z,18.42
2023-02-09T15:28:32.321Z,12.52
2023-02-09T15:31:00.415Z,14.00
2023-02-09T15:33:29.319Z,13.68
2023-02-09T15:35:59.416Z,14.10
2023-02-09T15:38:28.115Z,13.63
2023-02-09T15:41:15.910Z,13.33
2023-02-09T15:44:02.345Z,14.85
2023-02-09T15:46:48.527Z,14.55
2023-02-09T15:49:16.078Z,14.07
2023-02-09T15:51:43.777Z,14.32
2023-02-09T15:54:19.149Z,14.20
2023-02-09T15:56:47.471Z,15.65
2023-02-09T15:59:22.314Z,16.02
2023-02-09T16:01:51.218Z,14.98
2023-02-09T16:04:20.665Z,14.77
2023-02-09T16:06:51.358Z,15.43
2023-02-09T16:09:26.709Z,15.82
2023-02-09T16:11:57.024Z,16.35
2023-02-09T16:14:26.824Z,15.82
2023-02-09T16:16:54.516Z,15.70
2023-02-09T16:19:22.123Z,15.13
2023-02-09T16:21:53.451Z,16.48
2023-02-09T16:24:33.501Z,16.63
2023-02-09T16:27:03.044Z,18.27
2023-02-09T16:29:30.978Z,17.95
2023-02-09T16:31:58.541Z,18.30
2023-02-09T16:34:26.025Z,18.27
2023-02-09T16:36:53.720Z,17.73
2023-02-09T16:39:22.284Z,18.92
2023-02-09T16:41:50.985Z,20.45
2023-02-09T16:44:24.864Z,19.90
2023-02-09T16:46:59.927Z,20.33
2023-02-09T16:49:33.281Z,19.10
2023-02-09T16:52:27.872Z,19.33
2023-02-09T16:55:04.292Z,19.25
2023-02-09T16:57:31.920Z,19.20
2023-02-09T16:59:59.555Z,19.73
2023-02-09T17:02:33.968Z,20.88
2023-02-09T17:05:08.220Z,18.10
2023-02-09T17:07:48.663Z,20.23
2023-02-09T17:10:26.583Z,20.98
2023-02-09T17:12:54.195Z,19.10
2023-02-09T17:15:30.794Z,18.85
2023-02-09T17:18:04.978Z,20.23
2023-02-09T17:20:38.206Z,19.48
2023-02-09T17:23:06.764Z,19.15
2023-02-09T17:25:36.277Z,21.27
2023-02-09T17:28:04.505Z,19.90
2023-02-09T17:30:34.126Z,20.88
2023-02-09T17:33:05.690Z,20.17
2023-02-09T17:36:10.004Z,20.73
2023-02-09T17:38:30.807Z,20.92
2023-02-09T17:41:00.638Z,21.15
2023-02-09T17:43:28.568Z,21.02
2023-02-09T17:45:56.253Z,18.25
2023-02-09T17:48:24.753Z,19.92
2023-02-09T17:50:53.036Z,19.70
2023-02-09T17:53:23.553Z,19.95
2023-02-09T17:55:52.049Z,18.42
2023-02-09T17:58:20.334Z,19.27
2023-02-09T18:00:47.928Z,19.35
2023-02-09T18:03:19.752Z,15.13
2023-02-09T18:05:54.132Z,15.35
2023-02-09T18:08:22.182Z,14.98
2023-02-09T18:10:50.449Z,14.75
2023-02-09T18:13:20.640Z,15.48
2023-02-09T18:15:48.997Z,12.85
2023-02-09T18:18:16.553Z,12.43
2023-02-09T18:20:44.184Z,12.82
2023-02-09T18:23:16.167Z,12.50
2023-02-09T18:25:43.947Z,13.93
2023-02-09T18:28:14.714Z,14.40
2023-02-09T18:30:44.947Z,14.75
2023-02-09T18:33:15.557Z,16.35
2023-02-09T18:35:44.985Z,15.15
2023-02-09T18:38:14.831Z,15.35
2023-02-09T18:40:42.719Z,15.38
2023-02-09T18:43:14.608Z,14.73
2023-02-09T18:45:42.559Z,15.70
2023-02-09T18:48:11.575Z,14.75
2023-02-09T18:50:40.325Z,14.43
2023-02-09T18:53:08.706Z,14.52
2023-02-09T18:55:36.260Z,14.77
2023-02-09T18:58:06.531Z,13.40
2023-02-09T19:00:34.279Z,13.80
2023-02-09T19:03:02.051Z,14.30
2023-02-09T19:05:32.981Z,16.75
2023-02-09T19:08:00.822Z,15.23
2023-02-09T19:10:30.588Z,14.60
2023-02-09T19:13:02.829Z,14.75
2023-02-09T19:15:32.726Z,15.02
2023-02-09T19:18:02.704Z,14.30
2023-02-09T19:20:31.615Z,15.25
2023-02-09T19:22:59.185Z,14.97
2023-02-09T19:25:28.691Z,15.27
2023-02-09T19:30:26.472Z,16.10
2023-02-09T19:33:02.103Z,16.10
2023-02-09T19:35:29.916Z,15.52
2023-02-09T19:37:58.857Z,16.08
2023-02-09T19:40:28.597Z,15.85
2023-02-09T19:42:57.066Z,14.38
2023-02-09T19:45:24.653Z,14.35
2023-02-09T19:47:52.211Z,14.80
2023-02-09T19:50:20.120Z,14.05
2023-02-09T19:52:49.206Z,14.20
2023-02-09T19:55:17.458Z,15.65
2023-02-09T19:57:45.040Z,16.42
2023-02-09T20:00:18.165Z,15.68
2023-02-09T20:02:46.966Z,15.98
2023-02-09T20:05:16.649Z,13.70
2023-02-09T20:07:44.174Z,13.45
2023-02-09T20:10:11.903Z,10.80
2023-02-09T20:12:39.680Z,12.15
2023-02-09T20:15:12.189Z,14.00
2023-02-09T20:17:39.787Z,14.60
2023-02-09T20:20:07.612Z,14.77
2023-02-09T20:22:35.568Z,14.77
2023-02-09T20:25:03.098Z,14.50
2023-02-09T20:27:31.147Z,12.75
2023-02-09T20:30:01.510Z,13.25
2023-02-09T20:32:29.788Z,13.60
2023-02-09T20:34:57.308Z,12.38
2023-02-09T20:37:24.880Z,13.85
2023-02-09T20:39:55.556Z,14.60
2023-02-09T20:42:41.884Z,15.00
2023-02-09T20:45:35.316Z,16.65
2023-02-09T20:48:05.286Z,15.95
2023-02-09T20:50:33.726Z,16.55
2023-02-09T20:53:01.765Z,16.75
2023-02-09T20:55:30.303Z,18.10
2023-02-09T20:57:58.095Z,16.13
2023-02-09T21:00:25.840Z,15.55
2023-02-09T21:02:54.113Z,16.33
2023-02-09T21:05:21.855Z,14.73
2023-02-09T21:07:50.482Z,26.45
2023-02-09T21:10:18.198Z,24.52
2023-02-09T21:12:47.151Z,16.08
2023-02-09T21:15:14.989Z,16.40
2023-02-09T21:17:48.804Z,17.85
2023-02-09T21:20:17.116Z,15.65
2023-02-09T21:22:44.738Z,14.77
2023-02-09T21:25:13.823Z,14.27
2023-02-09T21:27:41.388Z,16.60
2023-02-09T21:30:09.528Z,15.15
2023-02-09T21:32:38.533Z,15.65
2023-02-09T21:35:10.384Z,49.63
2023-02-09T21:37:38.946Z,15.95
2023-02-09T21:40:07.327Z,16.40
2023-02-09T21:42:36.937Z,16.77
2023-02-09T21:45:05.707Z,16.30
2023-02-09T21:47:37.371Z,14.63
2023-02-09T21:50:08.626Z,13.23
2023-02-09T21:52:36.638Z,12.93
2023-02-09T21:55:05.021Z,11.73
2023-02-09T21:57:33.903Z,10.27
2023-02-09T22:00:05.475Z,11.30
2023-02-09T22:02:34.937Z,9.43
2023-02-09T22:05:02.838Z,10.13
2023-02-09T22:07:30.792Z,11.55
2023-02-09T22:09:58.346Z,11.25
2023-02-09T22:12:26.240Z,15.23
2023-02-09T22:14:53.949Z,14.88
2023-02-09T22:17:21.647Z,14.60
2023-02-09T22:19:49.640Z,14.73
2023-02-09T22:22:17.330Z,13.38
2023-02-09T22:24:45.517Z,13.73
2023-02-09T22:27:13.097Z,14.75
2023-02-09T22:29:40.899Z,14.10
2023-02-09T22:32:08.872Z,14.07
2023-02-09T22:34:36.838Z,15.13
2023-02-09T22:37:07.561Z,15.27
2023-02-09T22:39:35.169Z,15.43
2023-02-09T22:42:02.716Z,15.75
2023-02-09T22:44:30.973Z,15.57
2023-02-09T22:46:58.711Z,17.00
2023-02-09T22:49:26.388Z,16.70
2023-02-09T22:51:53.896Z,18.05
2023-02-09T22:54:21.743Z,16.90
2023-02-09T22:56:49.635Z,16.65
2023-02-09T22:59:17.703Z,17.23
2023-02-09T23:01:45.673Z,16.92
2023-02-09T23:04:13.388Z,18.15
2023-02-09T23:06:40.920Z,19.83
2023-02-09T23:09:08.869Z,20.95
2023-02-09T23:11:36.472Z,18.88
2023-02-09T23:14:12.431Z,20.15
2023-02-09T23:16:41.385Z,19.75
2023-02-09T23:19:13.282Z,20.20
2023-02-09T23:21:44.622Z,20.08
2023-02-09T23:24:13.593Z,21.20
2023-02-09T23:26:42.665Z,20.88
2023-02-09T23:29:12.910Z,20.63
2023-02-09T23:31:40.979Z,20.50
2023-02-09T23:34:11.112Z,19.17
2023-02-09T23:36:40.011Z,20.15
2023-02-09T23:39:07.685Z,20.88
2023-02-09T23:41:35.409Z,20.40
2023-02-09T23:44:04.635Z,20.45
2023-02-09T23:46:32.538Z,18.30
2023-02-09T23:49:00.546Z,19.48
2023-02-09T23:51:33.360Z,18.80
2023-02-09T23:54:06.052Z,19.98
2023-02-09T23:56:37.303Z,20.88
2023-02-09T23:59:11.608Z,19.77
